createdAt,value
2016-12-30T00:00:04.860Z,74710
2016-12-30T00:00:13.528Z,74702
2016-12-30T00:00:22.208Z,74703
2016-12-30T00:00:30.887Z,74709
2016-12-30T00:00:39.551Z,74706
2016-12-30T00:00:48.221Z,74703
2016-12-30T00:00:56.893Z,74706
2016-12-30T00:01:05.570Z,74705
2016-12-30T00:01:14.229Z,74702
2016-12-30T00:01:22.919Z,74705
2016-12-30T00:01:31.605Z,74705
2016-12-30T00:01:40.255Z,74707
2016-12-30T00:01:48.944Z,74704
2016-12-30T00:01:57.627Z,74705
2016-12-30T00:02:06.309Z,74706
2016-12-30T00:02:14.968Z,74708
2016-12-30T00:02:23.647Z,74705
2016-12-30T00:02:32.318Z,74703
2016-12-30T00:02:41.014Z,74703
2016-12-30T00:02:49.673Z,74702
2016-12-30T00:02:58.353Z,74703
2016-12-30T00:03:07.396Z,74705
2016-12-30T00:03:16.075Z,74700
2016-12-30T00:03:24.768Z,74698
2016-12-30T00:03:48.347Z,74699
2016-12-30T00:03:57.049Z,74700
2016-12-30T00:04:05.727Z,74702
2016-12-30T00:04:14.400Z,74696
2016-12-30T00:04:23.068Z,74700
2016-12-30T00:04:31.751Z,74701
2016-12-30T00:04:40.429Z,74703
2016-12-30T00:04:49.090Z,74700
2016-12-30T00:04:57.773Z,74699
2016-12-30T00:05:06.451Z,74700
2016-12-30T00:05:15.115Z,74698
2016-12-30T00:05:23.778Z,74700
2016-12-30T00:05:32.441Z,74705
2016-12-30T00:05:41.121Z,74702
2016-12-30T00:05:49.778Z,74701
2016-12-30T00:05:58.457Z,74700
2016-12-30T00:06:07.492Z,74704
2016-12-30T00:06:16.154Z,74701
2016-12-30T00:06:24.851Z,74700
2016-12-30T00:06:33.534Z,74702
2016-12-30T00:06:42.198Z,74701
2016-12-30T00:06:50.860Z,74701
2016-12-30T00:06:59.524Z,74703
2016-12-30T00:07:08.194Z,74700
2016-12-30T00:07:16.876Z,74700
2016-12-30T00:07:25.559Z,74704
2016-12-30T00:07:34.256Z,74704
2016-12-30T00:07:42.929Z,74702
2016-12-30T00:07:51.588Z,74700
2016-12-30T00:08:00.252Z,74707
2016-12-30T00:08:08.953Z,74702
2016-12-30T00:08:47.405Z,74701
2016-12-30T00:08:56.085Z,74702
2016-12-30T00:09:04.764Z,74704
2016-12-30T00:09:13.440Z,74705
2016-12-30T00:09:22.105Z,74701
2016-12-30T00:09:30.778Z,74700
2016-12-30T00:09:39.458Z,74701
2016-12-30T00:09:48.158Z,74699
2016-12-30T00:09:56.832Z,74701
2016-12-30T00:10:05.511Z,74702
2016-12-30T00:10:14.184Z,74701
2016-12-30T00:10:22.853Z,74701
2016-12-30T00:10:46.422Z,74702
2016-12-30T00:10:55.096Z,74702
2016-12-30T00:11:03.762Z,74705
2016-12-30T00:11:27.322Z,74705
2016-12-30T00:11:35.990Z,74700
2016-12-30T00:12:23.135Z,74705
2016-12-30T00:12:31.803Z,74699
2016-12-30T00:12:40.465Z,74699
2016-12-30T00:12:49.143Z,74700
2016-12-30T00:12:57.821Z,74704
2016-12-30T00:13:06.486Z,74702
2016-12-30T00:13:15.169Z,74705
2016-12-30T00:13:23.865Z,74704
2016-12-30T00:13:32.532Z,74703
2016-12-30T00:13:41.190Z,74703
2016-12-30T00:13:49.852Z,74706
2016-12-30T00:13:58.888Z,74707
2016-12-30T00:14:07.560Z,74705
2016-12-30T00:14:16.251Z,74707
2016-12-30T00:14:24.912Z,74701
2016-12-30T00:14:33.573Z,74704
2016-12-30T00:14:42.253Z,74703
2016-12-30T00:14:50.926Z,74703
2016-12-30T00:14:59.621Z,74698
2016-12-30T00:15:08.294Z,74699
2016-12-30T00:15:16.969Z,74697
2016-12-30T00:15:25.670Z,74699
2016-12-30T00:15:34.343Z,74702
2016-12-30T00:15:43.001Z,74702
2016-12-30T00:16:15.256Z,74704
2016-12-30T00:16:23.947Z,74698
2016-12-30T00:16:32.609Z,74697
2016-12-30T00:16:41.277Z,74699
2016-12-30T00:16:49.954Z,74699
2016-12-30T00:17:13.512Z,74697
2016-12-30T00:17:22.205Z,74700
2016-12-30T00:17:30.882Z,74704
2016-12-30T00:17:39.572Z,74700
2016-12-30T00:17:48.246Z,74707
2016-12-30T00:17:56.934Z,74696
2016-12-30T00:18:05.609Z,74700
2016-12-30T00:18:14.271Z,74698
2016-12-30T00:18:22.957Z,74699
2016-12-30T00:19:24.968Z,74703
2016-12-30T00:19:33.652Z,74703
2016-12-30T00:19:42.308Z,74698
2016-12-30T00:19:50.991Z,74702
2016-12-30T00:19:59.666Z,74698
2016-12-30T00:20:08.346Z,74699
2016-12-30T00:20:17.025Z,74703
2016-12-30T00:20:25.724Z,74700
2016-12-30T00:20:34.425Z,74698
2016-12-30T00:20:43.135Z,74696
2016-12-30T00:20:51.824Z,74700
2016-12-30T00:21:53.829Z,74700
2016-12-30T00:22:02.498Z,74697
2016-12-30T00:23:19.432Z,74695
2016-12-30T00:23:28.108Z,74694
2016-12-30T00:23:36.798Z,74698
2016-12-30T00:23:45.464Z,74697
2016-12-30T00:23:54.148Z,74695
2016-12-30T00:24:02.811Z,74697
2016-12-30T00:24:11.523Z,74696
2016-12-30T00:24:20.567Z,74694
2016-12-30T00:24:29.228Z,74691
2016-12-30T00:24:37.896Z,74693
2016-12-30T00:24:46.586Z,74696
2016-12-30T00:24:55.237Z,74695
2016-12-30T00:25:03.918Z,74695
2016-12-30T00:25:12.594Z,74702
2016-12-30T00:25:21.282Z,74697
2016-12-30T00:25:29.958Z,74695
2016-12-30T00:25:38.609Z,74701
2016-12-30T00:25:47.270Z,74699
2016-12-30T00:25:55.957Z,74698
2016-12-30T00:26:05.018Z,74700
2016-12-30T00:26:13.693Z,74697
2016-12-30T00:26:22.366Z,74700
2016-12-30T00:26:31.050Z,74701
2016-12-30T00:26:39.742Z,74699
2016-12-30T00:26:48.408Z,74697
2016-12-30T00:26:57.107Z,74705
2016-12-30T00:27:06.127Z,74699
2016-12-30T00:27:14.824Z,74697
2016-12-30T00:27:23.499Z,74698
2016-12-30T00:27:47.045Z,74698
2016-12-30T00:27:55.731Z,74697
2016-12-30T00:28:04.398Z,74702
2016-12-30T00:28:13.087Z,74699
2016-12-30T00:28:21.778Z,74699
2016-12-30T00:28:30.431Z,74702
2016-12-30T00:28:39.091Z,74701
2016-12-30T00:28:47.788Z,74701
2016-12-30T00:28:56.456Z,74703
2016-12-30T00:29:05.122Z,74699
2016-12-30T00:29:13.790Z,74699
2016-12-30T00:29:22.475Z,74703
2016-12-30T00:29:31.163Z,74700
2016-12-30T00:29:39.850Z,74699
2016-12-30T00:29:48.544Z,74702
2016-12-30T00:29:57.185Z,74701
2016-12-30T00:30:05.861Z,74702
2016-12-30T00:30:14.541Z,74696
2016-12-30T00:30:23.212Z,74701
2016-12-30T00:30:31.879Z,74700
2016-12-30T00:30:40.558Z,74703
2016-12-30T00:30:49.260Z,74704
2016-12-30T00:30:57.926Z,74702
2016-12-30T00:31:06.584Z,74700
2016-12-30T00:31:15.266Z,74700
2016-12-30T00:31:23.937Z,74698
2016-12-30T00:31:32.603Z,74704
2016-12-30T00:31:41.284Z,74702
2016-12-30T00:31:49.950Z,74700
2016-12-30T00:31:58.628Z,74698
2016-12-30T00:32:07.300Z,74698
2016-12-30T00:32:15.966Z,74699
2016-12-30T00:32:24.626Z,74698
2016-12-30T00:32:33.307Z,74696
2016-12-30T00:32:42.031Z,74694
2016-12-30T00:32:50.698Z,74697
2016-12-30T00:32:59.377Z,74697
2016-12-30T00:33:08.039Z,74697
2016-12-30T00:33:16.727Z,74698
2016-12-30T00:33:25.390Z,74700
2016-12-30T00:33:34.059Z,74698
2016-12-30T00:33:42.689Z,74694
2016-12-30T00:33:51.377Z,74696
2016-12-30T00:34:00.038Z,74695
2016-12-30T00:34:08.710Z,74694
2016-12-30T00:34:17.399Z,74697
2016-12-30T00:34:26.077Z,74694
2016-12-30T00:34:34.755Z,74699
2016-12-30T00:34:43.432Z,74696
2016-12-30T00:34:52.108Z,74700
2016-12-30T00:35:00.792Z,74690
2016-12-30T00:35:09.470Z,74696
2016-12-30T00:35:18.143Z,74696
2016-12-30T00:35:26.840Z,74697
2016-12-30T00:35:35.508Z,74699
2016-12-30T00:35:44.196Z,74692
2016-12-30T00:35:52.879Z,74694
2016-12-30T00:36:01.566Z,74697
2016-12-30T00:36:10.227Z,74697
2016-12-30T00:36:18.875Z,74702
2016-12-30T00:36:27.543Z,74700
2016-12-30T00:36:36.228Z,74700
2016-12-30T00:36:44.888Z,74701
2016-12-30T00:36:53.563Z,74701
2016-12-30T00:37:02.253Z,74703
2016-12-30T00:37:10.938Z,74701
2016-12-30T00:37:19.625Z,74699
2016-12-30T00:37:28.295Z,74698
2016-12-30T00:37:36.969Z,74700
2016-12-30T00:37:45.624Z,74697
2016-12-30T00:38:09.193Z,74699
2016-12-30T00:38:17.884Z,74694
2016-12-30T00:38:26.554Z,74697
2016-12-30T00:38:35.241Z,74692
2016-12-30T00:38:43.942Z,74694
2016-12-30T00:38:52.598Z,74702
2016-12-30T00:39:01.255Z,74697
2016-12-30T00:39:09.927Z,74698
2016-12-30T00:39:18.595Z,74697
2016-12-30T00:39:27.263Z,74696
2016-12-30T00:39:35.942Z,74701
2016-12-30T00:39:44.613Z,74698
2016-12-30T00:39:53.278Z,74701
2016-12-30T00:40:01.951Z,74700
2016-12-30T00:40:10.645Z,74702
2016-12-30T00:40:19.301Z,74696
2016-12-30T00:40:27.958Z,74698
2016-12-30T00:40:36.626Z,74701
2016-12-30T00:40:45.303Z,74701
2016-12-30T00:40:53.987Z,74695
2016-12-30T00:41:02.653Z,74698
2016-12-30T00:41:11.320Z,74694
2016-12-30T00:41:19.983Z,74697
2016-12-30T00:41:28.652Z,74697
2016-12-30T00:41:37.325Z,74703
2016-12-30T00:41:45.987Z,74701
2016-12-30T00:41:54.631Z,74701
2016-12-30T00:42:03.310Z,74700
2016-12-30T00:42:11.987Z,74702
2016-12-30T00:42:20.651Z,74702
2016-12-30T00:42:29.328Z,74698
2016-12-30T00:42:38.013Z,74699
2016-12-30T00:42:46.662Z,74700
2016-12-30T00:42:55.327Z,74695
2016-12-30T00:43:04.022Z,74690
2016-12-30T00:43:12.678Z,74691
2016-12-30T00:43:21.359Z,74700
2016-12-30T00:43:30.022Z,74696
2016-12-30T00:43:38.691Z,74694
2016-12-30T00:43:47.356Z,74703
2016-12-30T00:43:56.022Z,74700
2016-12-30T00:44:04.687Z,74697
2016-12-30T00:44:13.373Z,74702
2016-12-30T00:44:22.038Z,74698
2016-12-30T00:44:30.707Z,74697
2016-12-30T00:44:39.391Z,74696
2016-12-30T00:44:48.064Z,74699
2016-12-30T00:44:56.739Z,74694
2016-12-30T00:45:05.419Z,74695
2016-12-30T00:45:14.091Z,74699
2016-12-30T00:45:22.778Z,74702
2016-12-30T00:45:31.474Z,74692
2016-12-30T00:45:40.145Z,74702
2016-12-30T00:45:48.818Z,74701
2016-12-30T00:45:57.462Z,74703
2016-12-30T00:46:06.136Z,74701
2016-12-30T00:46:29.705Z,74702
2016-12-30T00:46:38.370Z,74698
2016-12-30T00:46:47.042Z,74696
2016-12-30T00:46:55.725Z,74695
2016-12-30T00:47:04.407Z,74700
2016-12-30T00:47:13.086Z,74695
2016-12-30T00:47:21.759Z,74701
2016-12-30T00:47:30.453Z,74699
2016-12-30T00:47:39.160Z,74691
2016-12-30T00:47:47.843Z,74698
2016-12-30T00:47:56.527Z,74699
2016-12-30T00:48:05.186Z,74701
2016-12-30T00:48:13.861Z,74700
2016-12-30T00:48:22.535Z,74699
2016-12-30T00:48:31.218Z,74699
2016-12-30T00:48:39.895Z,74693
2016-12-30T00:48:48.567Z,74702
2016-12-30T00:48:57.248Z,74702
2016-12-30T00:49:05.916Z,74688
2016-12-30T00:49:14.592Z,74698
2016-12-30T00:49:23.277Z,74694
2016-12-30T00:49:31.953Z,74694
2016-12-30T00:49:40.623Z,74695
2016-12-30T00:49:49.286Z,74697
2016-12-30T00:49:57.935Z,74697
2016-12-30T00:50:06.609Z,74698
2016-12-30T00:50:15.294Z,74699
2016-12-30T00:50:23.989Z,74691
2016-12-30T00:50:32.664Z,74696
2016-12-30T00:50:41.344Z,74692
2016-12-30T00:50:50.007Z,74698
2016-12-30T00:50:58.681Z,74700
2016-12-30T00:51:07.338Z,74699
2016-12-30T00:51:16.014Z,74697
2016-12-30T00:51:24.673Z,74694
2016-12-30T00:51:33.350Z,74699
2016-12-30T00:51:42.018Z,74698
2016-12-30T00:51:50.681Z,74695
2016-12-30T00:51:59.751Z,74698
2016-12-30T00:52:08.818Z,74698
2016-12-30T00:52:17.476Z,74701
2016-12-30T00:52:26.131Z,74697
2016-12-30T00:52:34.805Z,74699
2016-12-30T00:52:43.475Z,74697
2016-12-30T00:52:52.172Z,74695
2016-12-30T00:53:00.833Z,74696
2016-12-30T00:53:09.504Z,74696
2016-12-30T00:53:18.161Z,74694
2016-12-30T00:53:26.825Z,74698
2016-12-30T00:53:35.490Z,74694
2016-12-30T00:53:44.153Z,74696
2016-12-30T00:53:52.823Z,74694
2016-12-30T00:54:01.505Z,74694
2016-12-30T00:54:10.202Z,74692
2016-12-30T00:54:18.895Z,74697
2016-12-30T00:54:27.562Z,74690
2016-12-30T00:54:36.255Z,74691
2016-12-30T00:54:44.928Z,74686
2016-12-30T00:54:53.598Z,74693
2016-12-30T00:55:02.289Z,74692
2016-12-30T00:55:10.956Z,74698
2016-12-30T00:55:19.640Z,74693
2016-12-30T00:55:28.330Z,74696
2016-12-30T00:55:37.016Z,74690
2016-12-30T00:55:45.708Z,74692
2016-12-30T00:55:54.392Z,74689
2016-12-30T00:56:03.037Z,74692
2016-12-30T00:56:11.702Z,74698
2016-12-30T00:56:20.362Z,74694
2016-12-30T00:56:29.039Z,74689
2016-12-30T00:56:37.684Z,74693
2016-12-30T00:56:46.373Z,74695
2016-12-30T00:56:55.058Z,74696
2016-12-30T00:57:04.099Z,74695
2016-12-30T00:57:12.773Z,74694
2016-12-30T00:57:21.446Z,74691
2016-12-30T00:57:30.101Z,74695
2016-12-30T00:57:38.787Z,74693
2016-12-30T00:57:47.503Z,74694
2016-12-30T00:57:56.186Z,74697
2016-12-30T00:58:04.851Z,74689
2016-12-30T00:58:13.521Z,74691
2016-12-30T00:58:22.179Z,74692
2016-12-30T00:58:30.850Z,74692
2016-12-30T00:58:39.516Z,74692
2016-12-30T00:58:48.182Z,74693
2016-12-30T00:58:56.828Z,74690
2016-12-30T00:59:05.484Z,74692
2016-12-30T00:59:14.164Z,74692
2016-12-30T00:59:22.837Z,74692
2016-12-30T00:59:31.514Z,74690
2016-12-30T00:59:40.194Z,74694
2016-12-30T00:59:48.901Z,74693
2016-12-30T00:59:57.573Z,74693
2016-12-30T01:00:06.252Z,74693
2016-12-30T01:00:15.316Z,74691
2016-12-30T01:00:23.992Z,74696
2016-12-30T01:00:32.664Z,74693
2016-12-30T01:00:41.324Z,74692
2016-12-30T01:00:50.003Z,74690
2016-12-30T01:00:58.661Z,74694
2016-12-30T01:01:07.325Z,74693
2016-12-30T01:01:15.969Z,74690
2016-12-30T01:01:24.636Z,74696
2016-12-30T01:01:33.321Z,74691
2016-12-30T01:01:42.013Z,74693
2016-12-30T01:02:05.592Z,74693
2016-12-30T01:02:14.272Z,74692
2016-12-30T01:02:22.962Z,74693
2016-12-30T01:03:10.480Z,74689
2016-12-30T01:03:19.168Z,74686
2016-12-30T01:03:27.819Z,74689
2016-12-30T01:03:36.499Z,74694
2016-12-30T01:03:45.174Z,74690
2016-12-30T01:03:53.830Z,74691
2016-12-30T01:04:02.500Z,74691
2016-12-30T01:04:11.156Z,74693
2016-12-30T01:04:19.817Z,74689
2016-12-30T01:04:28.513Z,74692
2016-12-30T01:04:37.157Z,74690
2016-12-30T01:04:45.817Z,74690
2016-12-30T01:04:54.494Z,74690
2016-12-30T01:05:03.176Z,74690
2016-12-30T01:05:11.837Z,74690
2016-12-30T01:05:20.501Z,74690
2016-12-30T01:05:29.171Z,74694
2016-12-30T01:05:37.831Z,74693
2016-12-30T01:05:46.524Z,74692
2016-12-30T01:05:55.200Z,74689
2016-12-30T01:06:03.851Z,74687
2016-12-30T01:06:12.518Z,74685
2016-12-30T01:06:21.197Z,74689
2016-12-30T01:06:29.896Z,74688
2016-12-30T01:06:38.551Z,74685
2016-12-30T01:06:47.215Z,74689
2016-12-30T01:06:55.873Z,74688
2016-12-30T01:07:04.533Z,74687
2016-12-30T01:07:13.205Z,74690
2016-12-30T01:07:21.872Z,74690
2016-12-30T01:07:30.541Z,74691
2016-12-30T01:07:39.232Z,74688
2016-12-30T01:07:47.920Z,74689
2016-12-30T01:07:56.576Z,74689
2016-12-30T01:08:05.246Z,74688
2016-12-30T01:08:13.924Z,74689
2016-12-30T01:08:22.600Z,74693
2016-12-30T01:08:31.290Z,74689
2016-12-30T01:08:39.981Z,74690
2016-12-30T01:08:48.649Z,74691
2016-12-30T01:08:57.330Z,74691
2016-12-30T01:09:06.011Z,74690
2016-12-30T01:09:14.678Z,74691
2016-12-30T01:09:23.366Z,74693
2016-12-30T01:09:32.051Z,74691
2016-12-30T01:09:40.735Z,74691
2016-12-30T01:09:49.413Z,74697
2016-12-30T01:09:58.071Z,74691
2016-12-30T01:10:06.751Z,74691
2016-12-30T01:10:15.418Z,74691
2016-12-30T01:10:24.078Z,74694
2016-12-30T01:10:32.777Z,74690
2016-12-30T01:10:41.442Z,74691
2016-12-30T01:10:50.135Z,74690
2016-12-30T01:10:58.822Z,74688
2016-12-30T01:11:07.509Z,74689
2016-12-30T01:11:16.185Z,74687
2016-12-30T01:11:24.871Z,74691
2016-12-30T01:11:33.549Z,74688
2016-12-30T01:11:42.233Z,74689
2016-12-30T01:11:50.904Z,74685
2016-12-30T01:11:59.574Z,74690
2016-12-30T01:12:08.248Z,74692
2016-12-30T01:12:16.924Z,74691
2016-12-30T01:12:25.574Z,74685
2016-12-30T01:12:34.247Z,74688
2016-12-30T01:12:42.910Z,74688
2016-12-30T01:12:51.553Z,74686
2016-12-30T01:13:00.250Z,74685
2016-12-30T01:13:08.895Z,74690
2016-12-30T01:13:17.554Z,74686
2016-12-30T01:13:26.251Z,74686
2016-12-30T01:13:34.935Z,74686
2016-12-30T01:13:43.610Z,74687
2016-12-30T01:13:52.320Z,74690
2016-12-30T01:14:01.004Z,74685
2016-12-30T01:14:09.691Z,74688
2016-12-30T01:14:18.380Z,74690
2016-12-30T01:14:27.080Z,74688
2016-12-30T01:14:35.765Z,74688
2016-12-30T01:14:44.463Z,74689
2016-12-30T01:14:53.151Z,74689
2016-12-30T01:15:01.828Z,74690
2016-12-30T01:15:10.519Z,74691
2016-12-30T01:15:19.189Z,74690
2016-12-30T01:15:27.861Z,74694
2016-12-30T01:15:36.555Z,74686
2016-12-30T01:15:45.241Z,74695
2016-12-30T01:15:53.905Z,74692
2016-12-30T01:16:02.568Z,74691
2016-12-30T01:16:11.236Z,74688
2016-12-30T01:16:19.911Z,74690
2016-12-30T01:16:28.588Z,74692
2016-12-30T01:16:37.258Z,74689
2016-12-30T01:16:45.919Z,74692
2016-12-30T01:16:54.605Z,74687
2016-12-30T01:17:03.284Z,74692
2016-12-30T01:17:11.955Z,74693
2016-12-30T01:17:20.633Z,74684
2016-12-30T01:17:29.310Z,74686
2016-12-30T01:17:37.954Z,74687
2016-12-30T01:17:46.613Z,74687
2016-12-30T01:17:55.296Z,74685
2016-12-30T01:18:03.969Z,74691
2016-12-30T01:18:12.661Z,74689
2016-12-30T01:18:21.332Z,74687
2016-12-30T01:18:30.370Z,74689
2016-12-30T01:18:39.056Z,74689
2016-12-30T01:18:47.726Z,74689
2016-12-30T01:18:56.381Z,74689
2016-12-30T01:19:05.046Z,74688
2016-12-30T01:19:13.695Z,74693
2016-12-30T01:19:22.365Z,74689
2016-12-30T01:19:31.030Z,74690
2016-12-30T01:19:39.712Z,74692
2016-12-30T01:19:48.388Z,74690
2016-12-30T01:19:57.078Z,74688
2016-12-30T01:20:05.739Z,74690
2016-12-30T01:20:14.400Z,74690
2016-12-30T01:20:23.065Z,74687
2016-12-30T01:20:31.748Z,74685
2016-12-30T01:20:40.415Z,74689
2016-12-30T01:20:49.100Z,74688
2016-12-30T01:20:57.773Z,74687
2016-12-30T01:21:06.429Z,74692
2016-12-30T01:21:15.129Z,74688
2016-12-30T01:21:23.791Z,74689
2016-12-30T01:21:32.450Z,74693
2016-12-30T01:21:41.115Z,74692
2016-12-30T01:21:49.784Z,74689
2016-12-30T01:21:58.457Z,74686
2016-12-30T01:22:07.145Z,74690
2016-12-30T01:22:15.807Z,74688
2016-12-30T01:22:24.493Z,74687
2016-12-30T01:22:33.158Z,74687
2016-12-30T01:22:41.833Z,74688
2016-12-30T01:22:50.514Z,74689
2016-12-30T01:22:59.192Z,74687
2016-12-30T01:23:08.224Z,74686
2016-12-30T01:23:16.887Z,74686
2016-12-30T01:23:25.607Z,74691
2016-12-30T01:23:34.285Z,74687
2016-12-30T01:23:42.939Z,74683
2016-12-30T01:23:51.617Z,74684
2016-12-30T01:24:00.287Z,74685
2016-12-30T01:24:08.952Z,74687
2016-12-30T01:24:17.620Z,74687
2016-12-30T01:24:26.301Z,74687
2016-12-30T01:24:34.975Z,74686
2016-12-30T01:24:43.651Z,74687
2016-12-30T01:24:52.313Z,74688
2016-12-30T01:25:00.969Z,74682
2016-12-30T01:25:09.651Z,74683
2016-12-30T01:25:18.326Z,74685
2016-12-30T01:25:26.996Z,74684
2016-12-30T01:25:35.658Z,74680
2016-12-30T01:25:44.321Z,74681
2016-12-30T01:25:53.004Z,74686
2016-12-30T01:26:01.664Z,74685
2016-12-30T01:26:10.680Z,74679
2016-12-30T01:26:19.353Z,74683
2016-12-30T01:26:28.033Z,74683
2016-12-30T01:26:36.695Z,74683
2016-12-30T01:26:45.392Z,74680
2016-12-30T01:26:54.050Z,74679
2016-12-30T01:27:02.719Z,74683
2016-12-30T01:27:11.383Z,74685
2016-12-30T01:27:20.092Z,74681
2016-12-30T01:27:28.772Z,74682
2016-12-30T01:27:37.459Z,74680
2016-12-30T01:27:46.143Z,74682
2016-12-30T01:27:54.822Z,74680
2016-12-30T01:28:03.496Z,74680
2016-12-30T01:28:12.156Z,74679
2016-12-30T01:28:20.852Z,74677
2016-12-30T01:28:29.519Z,74682
2016-12-30T01:28:38.190Z,74681
2016-12-30T01:28:46.857Z,74679
2016-12-30T01:28:55.521Z,74678
2016-12-30T01:29:04.180Z,74680
2016-12-30T01:29:12.854Z,74685
2016-12-30T01:29:21.522Z,74686
2016-12-30T01:29:30.197Z,74682
2016-12-30T01:29:38.905Z,74683
2016-12-30T01:29:47.579Z,74682
2016-12-30T01:29:56.292Z,74683
2016-12-30T01:30:04.982Z,74687
2016-12-30T01:30:13.647Z,74681
2016-12-30T01:30:22.310Z,74682
2016-12-30T01:30:30.982Z,74682
2016-12-30T01:30:39.643Z,74684
2016-12-30T01:30:48.321Z,74679
2016-12-30T01:30:56.992Z,74686
2016-12-30T01:31:05.642Z,74689
2016-12-30T01:31:14.307Z,74685
2016-12-30T01:31:22.973Z,74686
2016-12-30T01:31:31.663Z,74684
2016-12-30T01:31:40.314Z,74685
2016-12-30T01:31:48.994Z,74684
2016-12-30T01:31:57.679Z,74681
2016-12-30T01:32:06.360Z,74681
2016-12-30T01:32:15.031Z,74684
2016-12-30T01:32:23.699Z,74680
2016-12-30T01:32:32.372Z,74684
2016-12-30T01:32:41.065Z,74683
2016-12-30T01:32:49.738Z,74679
2016-12-30T01:32:58.414Z,74686
2016-12-30T01:33:07.070Z,74686
2016-12-30T01:33:15.741Z,74681
2016-12-30T01:33:24.431Z,74684
2016-12-30T01:33:33.086Z,74688
2016-12-30T01:33:41.743Z,74689
2016-12-30T01:33:50.402Z,74687
2016-12-30T01:33:59.087Z,74690
2016-12-30T01:34:07.804Z,74685
2016-12-30T01:34:16.466Z,74687
2016-12-30T01:34:25.143Z,74692
2016-12-30T01:34:33.850Z,74687
2016-12-30T01:34:42.537Z,74685
2016-12-30T01:34:51.232Z,74688
2016-12-30T01:34:59.916Z,74686
2016-12-30T01:35:08.612Z,74682
2016-12-30T01:35:17.292Z,74689
2016-12-30T01:35:25.964Z,74684
2016-12-30T01:35:34.626Z,74689
2016-12-30T01:35:43.324Z,74686
2016-12-30T01:35:52.020Z,74685
2016-12-30T01:36:00.699Z,74685
2016-12-30T01:36:09.389Z,74682
2016-12-30T01:36:18.060Z,74682
2016-12-30T01:36:26.725Z,74684
2016-12-30T01:36:35.411Z,74686
2016-12-30T01:36:44.079Z,74683
2016-12-30T01:36:52.762Z,74684
2016-12-30T01:37:01.464Z,74686
2016-12-30T01:37:10.140Z,74688
2016-12-30T01:39:35.295Z,74680
2016-12-30T01:39:58.839Z,74683
2016-12-30T01:40:07.519Z,74685
2016-12-30T01:40:16.191Z,74681
2016-12-30T01:40:24.858Z,74681
2016-12-30T01:40:33.520Z,74680
2016-12-30T01:40:42.197Z,74683
2016-12-30T01:40:50.874Z,74687
2016-12-30T01:40:59.547Z,74683
2016-12-30T01:41:08.250Z,74682
2016-12-30T01:41:16.935Z,74684
2016-12-30T01:41:25.583Z,74682
2016-12-30T01:41:34.247Z,74684
2016-12-30T01:41:42.908Z,74684
2016-12-30T01:41:51.591Z,74680
2016-12-30T01:42:00.249Z,74678
2016-12-30T01:42:08.930Z,74683
2016-12-30T01:42:17.624Z,74681
2016-12-30T01:42:26.310Z,74680
2016-12-30T01:42:34.976Z,74682
2016-12-30T01:42:43.662Z,74683
2016-12-30T01:42:52.334Z,74684
2016-12-30T01:43:00.993Z,74683
2016-12-30T01:43:09.661Z,74685
2016-12-30T01:43:18.369Z,74687
2016-12-30T01:43:27.068Z,74684
2016-12-30T01:43:35.730Z,74684
2016-12-30T01:43:44.407Z,74684
2016-12-30T01:43:53.080Z,74681
2016-12-30T01:44:01.753Z,74685
2016-12-30T01:44:10.424Z,74687
2016-12-30T01:44:19.109Z,74685
2016-12-30T01:44:27.767Z,74685
2016-12-30T01:44:36.444Z,74683
2016-12-30T01:44:45.108Z,74683
2016-12-30T01:44:53.772Z,74683
2016-12-30T01:45:02.448Z,74684
2016-12-30T01:45:11.135Z,74682
2016-12-30T01:45:19.820Z,74682
2016-12-30T01:45:28.471Z,74681
2016-12-30T01:45:37.137Z,74683
2016-12-30T01:45:45.812Z,74685
2016-12-30T01:45:54.487Z,74680
2016-12-30T01:46:03.149Z,74684
2016-12-30T01:46:11.827Z,74687
2016-12-30T01:46:20.493Z,74683
2016-12-30T01:46:29.527Z,74682
2016-12-30T01:46:38.233Z,74680
2016-12-30T01:46:46.907Z,74680
2016-12-30T01:46:55.580Z,74681
2016-12-30T01:47:04.258Z,74680
2016-12-30T01:47:12.928Z,74680
2016-12-30T01:47:21.613Z,74680
2016-12-30T01:47:30.285Z,74683
2016-12-30T01:47:38.971Z,74682
2016-12-30T01:47:47.648Z,74682
2016-12-30T01:47:56.309Z,74679
2016-12-30T01:48:04.991Z,74682
2016-12-30T01:48:13.706Z,74684
2016-12-30T01:48:22.369Z,74681
2016-12-30T01:48:31.042Z,74678
2016-12-30T01:48:39.722Z,74680
2016-12-30T01:48:48.387Z,74679
2016-12-30T01:48:57.053Z,74682
2016-12-30T01:49:05.720Z,74683
2016-12-30T01:49:14.396Z,74680
2016-12-30T01:49:23.054Z,74684
2016-12-30T01:49:31.697Z,74683
2016-12-30T01:49:40.371Z,74681
2016-12-30T01:49:49.069Z,74680
2016-12-30T01:49:57.728Z,74684
2016-12-30T01:50:06.389Z,74682
2016-12-30T01:50:15.427Z,74678
2016-12-30T01:50:24.101Z,74683
2016-12-30T01:50:32.769Z,74682
2016-12-30T01:50:41.454Z,74683
2016-12-30T01:50:50.143Z,74683
2016-12-30T01:50:58.826Z,74682
2016-12-30T01:51:07.532Z,74680
2016-12-30T01:51:16.208Z,74683
2016-12-30T01:51:39.779Z,74683
2016-12-30T01:51:48.455Z,74682
2016-12-30T01:52:12.029Z,74681
2016-12-30T01:52:20.671Z,74681
2016-12-30T01:52:29.338Z,74680
2016-12-30T01:52:38.016Z,74682
2016-12-30T01:52:46.696Z,74680
2016-12-30T01:52:55.380Z,74680
2016-12-30T01:53:04.041Z,74681
2016-12-30T01:53:12.719Z,74682
2016-12-30T01:53:21.404Z,74683
2016-12-30T01:53:30.066Z,74680
2016-12-30T01:53:38.742Z,74679
2016-12-30T01:53:47.418Z,74679
2016-12-30T01:53:56.093Z,74678
2016-12-30T01:54:04.770Z,74682
2016-12-30T01:54:13.443Z,74680
2016-12-30T01:54:22.110Z,74681
2016-12-30T01:54:30.824Z,74675
2016-12-30T01:54:39.479Z,74679
2016-12-30T01:54:48.159Z,74681
2016-12-30T01:54:56.819Z,74683
2016-12-30T01:55:05.488Z,74678
2016-12-30T01:55:14.136Z,74679
2016-12-30T01:55:22.802Z,74681
2016-12-30T01:55:31.461Z,74682
2016-12-30T01:55:40.133Z,74678
2016-12-30T01:55:48.803Z,74678
2016-12-30T01:55:57.492Z,74678
2016-12-30T01:56:06.142Z,74680
2016-12-30T01:56:14.801Z,74680
2016-12-30T01:56:23.470Z,74683
2016-12-30T01:56:32.155Z,74680
2016-12-30T01:56:40.826Z,74676
2016-12-30T01:56:49.503Z,74686
2016-12-30T01:56:58.180Z,74683
2016-12-30T01:57:06.827Z,74682
2016-12-30T01:57:15.505Z,74683
2016-12-30T01:57:24.177Z,74683
2016-12-30T01:57:32.875Z,74684
2016-12-30T01:57:41.557Z,74679
2016-12-30T01:57:50.244Z,74686
2016-12-30T01:57:58.908Z,74682
2016-12-30T01:58:07.580Z,74681
2016-12-30T01:58:16.255Z,74679
2016-12-30T01:58:24.920Z,74682
2016-12-30T01:58:33.578Z,74680
2016-12-30T01:58:42.252Z,74679
2016-12-30T01:58:50.912Z,74684
2016-12-30T01:58:59.601Z,74681
2016-12-30T01:59:08.275Z,74679
2016-12-30T01:59:16.949Z,74686
2016-12-30T01:59:25.645Z,74682
2016-12-30T01:59:34.318Z,74681
2016-12-30T01:59:42.997Z,74680
2016-12-30T01:59:51.671Z,74682
2016-12-30T02:00:00.382Z,74678
2016-12-30T02:00:09.149Z,74678
2016-12-30T02:00:17.824Z,74680
2016-12-30T02:00:26.509Z,74678
2016-12-30T02:00:35.174Z,74677
2016-12-30T02:00:43.823Z,74678
2016-12-30T02:01:07.372Z,74677
2016-12-30T02:01:16.048Z,74674
2016-12-30T02:01:39.629Z,74681
2016-12-30T02:01:48.298Z,74676
2016-12-30T02:01:56.976Z,74679
2016-12-30T02:02:05.671Z,74680
2016-12-30T02:02:14.319Z,74679
2016-12-30T02:02:23.002Z,74677